sensor_id;sensor_type;location;lat;lon;timestamp;temperature;humidity
13174;DHT22;6652;48.802;9.190;2023-06-19T00:01:27;24.90;66.60
13174;DHT22;6652;48.802;9.190;2023-06-19T00:03:54;24.90;66.70
13174;DHT22;6652;48.802;9.190;2023-06-19T00:06:20;24.90;67.00
13174;DHT22;6652;48.802;9.190;2023-06-19T00:08:49;24.90;67.20
13174;DHT22;6652;48.802;9.190;2023-06-19T00:11:16;24.90;67.30
13174;DHT22;6652;48.802;9.190;2023-06-19T00:13:43;24.80;67.30
13174;DHT22;6652;48.802;9.190;2023-06-19T00:16:10;24.80;67.40
13174;DHT22;6652;48.802;9.190;2023-06-19T00:18:37;24.80;67.50
13174;DHT22;6652;48.802;9.190;2023-06-19T00:21:07;24.80;67.80
13174;DHT22;6652;48.802;9.190;2023-06-19T00:23:34;25.10;68.10
13174;DHT22;6652;48.802;9.190;2023-06-19T00:26:03;24.80;67.80
13174;DHT22;6652;48.802;9.190;2023-06-19T00:28:32;24.80;67.90
13174;DHT22;6652;48.802;9.190;2023-06-19T00:30:59;24.80;67.80
13174;DHT22;6652;48.802;9.190;2023-06-19T00:33:26;24.90;67.80
13174;DHT22;6652;48.802;9.190;2023-06-19T00:35:54;24.90;67.80
13174;DHT22;6652;48.802;9.190;2023-06-19T00:38:21;24.90;67.60
13174;DHT22;6652;48.802;9.190;2023-06-19T00:40:49;25.00;67.60
13174;DHT22;6652;48.802;9.190;2023-06-19T00:43:17;24.90;67.50
13174;DHT22;6652;48.802;9.190;2023-06-19T00:45:44;24.90;67.40
13174;DHT22;6652;48.802;9.190;2023-06-19T00:48:11;24.90;67.40
13174;DHT22;6652;48.802;9.190;2023-06-19T00:50:38;24.90;67.80
13174;DHT22;6652;48.802;9.190;2023-06-19T00:53:05;24.90;67.90
13174;DHT22;6652;48.802;9.190;2023-06-19T00:55:33;24.90;68.20
13174;DHT22;6652;48.802;9.190;2023-06-19T00:58:00;24.90;68.30
13174;DHT22;6652;48.802;9.190;2023-06-19T01:00:29;24.90;68.30
13174;DHT22;6652;48.802;9.190;2023-06-19T01:02:56;24.90;68.50
13174;DHT22;6652;48.802;9.190;2023-06-19T01:05:23;24.90;68.50
13174;DHT22;6652;48.802;9.190;2023-06-19T01:07:55;24.80;68.50
13174;DHT22;6652;48.802;9.190;2023-06-19T01:10:27;24.80;69.30
13174;DHT22;6652;48.802;9.190;2023-06-19T01:12:59;24.80;69.30
13174;DHT22;6652;48.802;9.190;2023-06-19T01:15:28;24.80;68.70
13174;DHT22;6652;48.802;9.190;2023-06-19T01:17:57;24.80;68.70
13174;DHT22;6652;48.802;9.190;2023-06-19T01:20:25;24.80;68.20
13174;DHT22;6652;48.802;9.190;2023-06-19T01:22:54;24.80;68.20
13174;DHT22;6652;48.802;9.190;2023-06-19T01:25:22;25.10;68.70
13174;DHT22;6652;48.802;9.190;2023-06-19T01:27:49;24.70;68.70
13174;DHT22;6652;48.802;9.190;2023-06-19T01:30:17;24.70;69.00
13174;DHT22;6652;48.802;9.190;2023-06-19T01:32:50;24.60;69.40
13174;DHT22;6652;48.802;9.190;2023-06-19T01:35:31;24.50;70.00
13174;DHT22;6652;48.802;9.190;2023-06-19T01:38:01;24.40;70.10
13174;DHT22;6652;48.802;9.190;2023-06-19T01:40:29;24.40;70.60
13174;DHT22;6652;48.802;9.190;2023-06-19T01:42:58;24.30;71.00
13174;DHT22;6652;48.802;9.190;2023-06-19T01:45:26;24.30;71.50
13174;DHT22;6652;48.802;9.190;2023-06-19T01:47:53;24.10;71.80
13174;DHT22;6652;48.802;9.190;2023-06-19T01:50:21;24.20;72.20
13174;DHT22;6652;48.802;9.190;2023-06-19T01:52:48;24.00;72.50
13174;DHT22;6652;48.802;9.190;2023-06-19T01:55:16;24.00;73.10
13174;DHT22;6652;48.802;9.190;2023-06-19T01:57:43;24.00;73.70
13174;DHT22;6652;48.802;9.190;2023-06-19T02:00:12;24.20;74.50
13174;DHT22;6652;48.802;9.190;2023-06-19T02:02:39;23.90;74.60
13174;DHT22;6652;48.802;9.190;2023-06-19T02:05:06;24.40;75.50
13174;DHT22;6652;48.802;9.190;2023-06-19T02:07:33;23.80;75.10
13174;DHT22;6652;48.802;9.190;2023-06-19T02:09:59;23.80;75.70
13174;DHT22;6652;48.802;9.190;2023-06-19T02:12:28;23.80;76.30
13174;DHT22;6652;48.802;9.190;2023-06-19T02:14:54;23.70;76.40
13174;DHT22;6652;48.802;9.190;2023-06-19T02:17:21;23.70;76.70
13174;DHT22;6652;48.802;9.190;2023-06-19T02:19:48;23.70;77.10
13174;DHT22;6652;48.802;9.190;2023-06-19T02:22:16;23.70;77.50
13174;DHT22;6652;48.802;9.190;2023-06-19T02:24:43;23.60;77.90
13174;DHT22;6652;48.802;9.190;2023-06-19T02:27:10;23.60;78.30
13174;DHT22;6652;48.802;9.190;2023-06-19T02:29:38;23.50;78.90
13174;DHT22;6652;48.802;9.190;2023-06-19T02:32:05;23.50;79.20
13174;DHT22;6652;48.802;9.190;2023-06-19T02:34:32;23.40;79.40
13174;DHT22;6652;48.802;9.190;2023-06-19T02:36:59;23.60;80.10
13174;DHT22;6652;48.802;9.190;2023-06-19T02:39:26;23.40;80.10
13174;DHT22;6652;48.802;9.190;2023-06-19T02:41:53;23.30;80.30
13174;DHT22;6652;48.802;9.190;2023-06-19T02:44:19;23.40;80.70
13174;DHT22;6652;48.802;9.190;2023-06-19T02:46:48;23.40;80.90
13174;DHT22;6652;48.802;9.190;2023-06-19T02:49:14;23.30;81.00
13174;DHT22;6652;48.802;9.190;2023-06-19T02:51:41;23.30;81.30
13174;DHT22;6652;48.802;9.190;2023-06-19T02:54:08;23.30;81.40
13174;DHT22;6652;48.802;9.190;2023-06-19T02:56:34;23.30;81.50
13174;DHT22;6652;48.802;9.190;2023-06-19T02:59:01;23.40;81.60
13174;DHT22;6652;48.802;9.190;2023-06-19T03:01:28;23.40;81.70
13174;DHT22;6652;48.802;9.190;2023-06-19T03:03:56;23.40;81.90
13174;DHT22;6652;48.802;9.190;2023-06-19T03:06:23;23.40;82.10
13174;DHT22;6652;48.802;9.190;2023-06-19T03:08:51;23.30;82.30
13174;DHT22;6652;48.802;9.190;2023-06-19T03:11:18;23.30;82.50
13174;DHT22;6652;48.802;9.190;2023-06-19T03:13:47;23.40;82.60
13174;DHT22;6652;48.802;9.190;2023-06-19T03:16:14;23.30;82.80
13174;DHT22;6652;48.802;9.190;2023-06-19T03:18:41;23.30;82.80
13174;DHT22;6652;48.802;9.190;2023-06-19T03:21:11;23.30;82.90
13174;DHT22;6652;48.802;9.190;2023-06-19T03:23:38;23.40;83.30
13174;DHT22;6652;48.802;9.190;2023-06-19T03:26:06;23.40;83.30
13174;DHT22;6652;48.802;9.190;2023-06-19T03:28:33;23.40;83.40
13174;DHT22;6652;48.802;9.190;2023-06-19T03:31:00;23.30;84.00
13174;DHT22;6652;48.802;9.190;2023-06-19T03:33:27;23.40;84.60
13174;DHT22;6652;48.802;9.190;2023-06-19T03:35:54;23.30;84.80
13174;DHT22;6652;48.802;9.190;2023-06-19T03:38:22;23.20;85.20
13174;DHT22;6652;48.802;9.190;2023-06-19T03:40:49;23.20;85.50
13174;DHT22;6652;48.802;9.190;2023-06-19T03:43:16;23.20;85.70
13174;DHT22;6652;48.802;9.190;2023-06-19T03:45:43;23.20;86.00
13174;DHT22;6652;48.802;9.190;2023-06-19T03:48:09;24.00;86.90
13174;DHT22;6652;48.802;9.190;2023-06-19T03:50:36;23.20;86.10
13174;DHT22;6652;48.802;9.190;2023-06-19T03:53:03;23.10;86.30
13174;DHT22;6652;48.802;9.190;2023-06-19T03:55:31;23.10;86.00
13174;DHT22;6652;48.802;9.190;2023-06-19T03:57:58;23.10;86.30
13174;DHT22;6652;48.802;9.190;2023-06-19T04:00:25;23.00;86.50
13174;DHT22;6652;48.802;9.190;2023-06-19T04:02:52;22.90;87.00
13174;DHT22;6652;48.802;9.190;2023-06-19T04:05:19;23.00;87.30
13174;DHT22;6652;48.802;9.190;2023-06-19T04:07:46;23.00;87.60
13174;DHT22;6652;48.802;9.190;2023-06-19T04:10:13;22.90;87.60
13174;DHT22;6652;48.802;9.190;2023-06-19T04:12:41;22.90;87.80
13174;DHT22;6652;48.802;9.190;2023-06-19T04:15:08;22.90;88.10
13174;DHT22;6652;48.802;9.190;2023-06-19T04:17:35;22.90;88.50
13174;DHT22;6652;48.802;9.190;2023-06-19T04:20:03;22.80;88.90
13174;DHT22;6652;48.802;9.190;2023-06-19T04:22:36;22.80;89.30
13174;DHT22;6652;48.802;9.190;2023-06-19T04:25:03;22.80;89.60
13174;DHT22;6652;48.802;9.190;2023-06-19T04:27:30;22.80;89.70
13174;DHT22;6652;48.802;9.190;2023-06-19T04:29:58;22.80;90.20
13174;DHT22;6652;48.802;9.190;2023-06-19T04:32:25;22.80;90.70
13174;DHT22;6652;48.802;9.190;2023-06-19T04:34:52;22.80;90.70
13174;DHT22;6652;48.802;9.190;2023-06-19T04:37:19;22.70;90.70
13174;DHT22;6652;48.802;9.190;2023-06-19T04:39:45;22.80;91.00
13174;DHT22;6652;48.802;9.190;2023-06-19T04:42:13;22.90;91.30
13174;DHT22;6652;48.802;9.190;2023-06-19T04:44:44;22.60;91.30
13174;DHT22;6652;48.802;9.190;2023-06-19T04:47:13;22.70;91.50
13174;DHT22;6652;48.802;9.190;2023-06-19T04:49:40;22.70;91.60
13174;DHT22;6652;48.802;9.190;2023-06-19T04:52:07;22.90;91.70
13174;DHT22;6652;48.802;9.190;2023-06-19T04:54:34;22.90;91.80
13174;DHT22;6652;48.802;9.190;2023-06-19T04:57:00;23.00;91.80
13174;DHT22;6652;48.802;9.190;2023-06-19T04:59:28;23.20;91.60
13174;DHT22;6652;48.802;9.190;2023-06-19T05:01:56;23.30;91.60
13174;DHT22;6652;48.802;9.190;2023-06-19T05:04:24;23.90;91.70
13174;DHT22;6652;48.802;9.190;2023-06-19T05:06:51;23.60;91.30
13174;DHT22;6652;48.802;9.190;2023-06-19T05:09:18;24.50;91.10
13174;DHT22;6652;48.802;9.190;2023-06-19T05:11:45;25.60;90.10
13174;DHT22;6652;48.802;9.190;2023-06-19T05:14:12;26.50;86.90
13174;DHT22;6652;48.802;9.190;2023-06-19T05:16:39;26.90;83.40
13174;DHT22;6652;48.802;9.190;2023-06-19T05:19:06;27.10;82.30
13174;DHT22;6652;48.802;9.190;2023-06-19T05:21:34;27.40;81.60
13174;DHT22;6652;48.802;9.190;2023-06-19T05:24:01;27.70;80.00
13174;DHT22;6652;48.802;9.190;2023-06-19T05:26:28;27.60;79.00
13174;DHT22;6652;48.802;9.190;2023-06-19T05:28:55;27.30;79.40
13174;DHT22;6652;48.802;9.190;2023-06-19T05:31:21;26.80;80.20
13174;DHT22;6652;48.802;9.190;2023-06-19T05:33:48;26.30;81.80
13174;DHT22;6652;48.802;9.190;2023-06-19T05:36:15;26.00;82.90
13174;DHT22;6652;48.802;9.190;2023-06-19T05:38:43;25.80;83.80
13174;DHT22;6652;48.802;9.190;2023-06-19T05:41:11;26.10;85.00
13174;DHT22;6652;48.802;9.190;2023-06-19T05:43:38;25.50;85.20
13174;DHT22;6652;48.802;9.190;2023-06-19T05:46:05;25.40;86.00
13174;DHT22;6652;48.802;9.190;2023-06-19T05:48:32;25.40;86.50
13174;DHT22;6652;48.802;9.190;2023-06-19T05:50:58;25.30;86.70
13174;DHT22;6652;48.802;9.190;2023-06-19T05:53:25;25.40;87.20
13174;DHT22;6652;48.802;9.190;2023-06-19T05:55:53;25.50;86.90
13174;DHT22;6652;48.802;9.190;2023-06-19T05:58:20;25.70;87.10
13174;DHT22;6652;48.802;9.190;2023-06-19T06:00:47;26.00;87.20
13174;DHT22;6652;48.802;9.190;2023-06-19T06:03:14;26.10;86.20
13174;DHT22;6652;48.802;9.190;2023-06-19T06:05:41;26.30;85.80
13174;DHT22;6652;48.802;9.190;2023-06-19T06:08:08;26.40;85.30
13174;DHT22;6652;48.802;9.190;2023-06-19T06:10:35;26.40;84.90
13174;DHT22;6652;48.802;9.190;2023-06-19T06:13:03;26.40;84.40
13174;DHT22;6652;48.802;9.190;2023-06-19T06:15:30;26.60;84.10
13174;DHT22;6652;48.802;9.190;2023-06-19T06:17:57;26.70;83.90
13174;DHT22;6652;48.802;9.190;2023-06-19T06:20:24;27.10;83.30
13174;DHT22;6652;48.802;9.190;2023-06-19T06:22:51;27.40;82.90
13174;DHT22;6652;48.802;9.190;2023-06-19T06:25:18;27.50;81.50
13174;DHT22;6652;48.802;9.190;2023-06-19T06:27:45;27.50;81.60
13174;DHT22;6652;48.802;9.190;2023-06-19T06:30:14;28.00;81.80
13174;DHT22;6652;48.802;9.190;2023-06-19T06:32:40;28.00;80.00
13174;DHT22;6652;48.802;9.190;2023-06-19T06:35:07;28.20;79.10
13174;DHT22;6652;48.802;9.190;2023-06-19T06:37:34;28.60;79.20
13174;DHT22;6652;48.802;9.190;2023-06-19T06:40:01;29.10;77.30
13174;DHT22;6652;48.802;9.190;2023-06-19T06:42:28;29.50;76.50
13174;DHT22;6652;48.802;9.190;2023-06-19T06:44:55;30.30;74.40
13174;DHT22;6652;48.802;9.190;2023-06-19T06:47:23;30.70;71.80
13174;DHT22;6652;48.802;9.190;2023-06-19T06:49:50;31.00;71.20
13174;DHT22;6652;48.802;9.190;2023-06-19T06:52:17;31.60;69.90
13174;DHT22;6652;48.802;9.190;2023-06-19T06:54:43;32.70;67.70
13174;DHT22;6652;48.802;9.190;2023-06-19T06:57:10;33.50;63.90
13174;DHT22;6652;48.802;9.190;2023-06-19T06:59:37;33.50;62.00
13174;DHT22;6652;48.802;9.190;2023-06-19T07:02:04;32.80;61.40
13174;DHT22;6652;48.802;9.190;2023-06-19T07:04:32;32.10;62.60
13174;DHT22;6652;48.802;9.190;2023-06-19T07:06:59;31.40;64.60
13174;DHT22;6652;48.802;9.190;2023-06-19T07:09:25;30.80;65.70
13174;DHT22;6652;48.802;9.190;2023-06-19T07:11:52;30.40;66.60
13174;DHT22;6652;48.802;9.190;2023-06-19T07:14:19;29.90;67.70
13174;DHT22;6652;48.802;9.190;2023-06-19T07:16:45;29.70;69.30
13174;DHT22;6652;48.802;9.190;2023-06-19T07:19:12;29.50;69.90
13174;DHT22;6652;48.802;9.190;2023-06-19T07:21:41;29.90;71.60
13174;DHT22;6652;48.802;9.190;2023-06-19T07:24:08;29.40;70.10
13174;DHT22;6652;48.802;9.190;2023-06-19T07:26:35;29.30;70.40
13174;DHT22;6652;48.802;9.190;2023-06-19T07:29:01;29.10;70.90
13174;DHT22;6652;48.802;9.190;2023-06-19T07:31:28;29.00;71.30
13174;DHT22;6652;48.802;9.190;2023-06-19T07:33:55;29.10;71.60
13174;DHT22;6652;48.802;9.190;2023-06-19T07:36:22;29.20;71.70
13174;DHT22;6652;48.802;9.190;2023-06-19T07:38:51;29.50;71.10
13174;DHT22;6652;48.802;9.190;2023-06-19T07:41:18;29.40;69.80
13174;DHT22;6652;48.802;9.190;2023-06-19T07:43:45;29.10;70.00
13174;DHT22;6652;48.802;9.190;2023-06-19T07:46:11;28.90;71.00
13174;DHT22;6652;48.802;9.190;2023-06-19T07:48:38;29.20;71.20
13174;DHT22;6652;48.802;9.190;2023-06-19T07:51:05;30.10;71.40
13174;DHT22;6652;48.802;9.190;2023-06-19T07:53:32;31.00;69.10
13174;DHT22;6652;48.802;9.190;2023-06-19T07:56:00;31.80;66.50
13174;DHT22;6652;48.802;9.190;2023-06-19T07:58:27;31.90;64.90
13174;DHT22;6652;48.802;9.190;2023-06-19T08:00:55;31.70;63.80
13174;DHT22;6652;48.802;9.190;2023-06-19T08:03:22;31.40;64.60
13174;DHT22;6652;48.802;9.190;2023-06-19T08:05:49;31.30;65.10
13174;DHT22;6652;48.802;9.190;2023-06-19T08:08:16;31.20;64.80
13174;DHT22;6652;48.802;9.190;2023-06-19T08:10:43;32.20;64.90
13174;DHT22;6652;48.802;9.190;2023-06-19T08:13:11;33.80;61.60
13174;DHT22;6652;48.802;9.190;2023-06-19T08:15:38;35.00;58.00
13174;DHT22;6652;48.802;9.190;2023-06-19T08:18:05;36.20;57.00
13174;DHT22;6652;48.802;9.190;2023-06-19T08:20:32;36.90;53.80
13174;DHT22;6652;48.802;9.190;2023-06-19T08:22:58;36.70;53.50
13174;DHT22;6652;48.802;9.190;2023-06-19T08:25:25;37.30;53.20
13174;DHT22;6652;48.802;9.190;2023-06-19T08:27:52;37.60;51.90
13174;DHT22;6652;48.802;9.190;2023-06-19T08:30:20;37.60;52.00
13174;DHT22;6652;48.802;9.190;2023-06-19T08:32:47;36.90;51.70
13174;DHT22;6652;48.802;9.190;2023-06-19T08:35:14;36.00;52.80
13174;DHT22;6652;48.802;9.190;2023-06-19T08:37:41;35.20;53.40
13174;DHT22;6652;48.802;9.190;2023-06-19T08:40:09;34.40;54.80
13174;DHT22;6652;48.802;9.190;2023-06-19T08:42:36;33.60;56.30
13174;DHT22;6652;48.802;9.190;2023-06-19T08:45:06;32.90;57.30
13174;DHT22;6652;48.802;9.190;2023-06-19T08:47:34;32.70;58.50
13174;DHT22;6652;48.802;9.190;2023-06-19T08:50:01;32.50;59.10
13174;DHT22;6652;48.802;9.190;2023-06-19T08:52:28;32.50;58.90
13174;DHT22;6652;48.802;9.190;2023-06-19T08:54:55;32.50;59.60
13174;DHT22;6652;48.802;9.190;2023-06-19T08:57:33;33.70;59.70
13174;DHT22;6652;48.802;9.190;2023-06-19T08:59:59;35.20;57.80
13174;DHT22;6652;48.802;9.190;2023-06-19T09:02:38;36.20;55.60
13174;DHT22;6652;48.802;9.190;2023-06-19T09:05:13;37.00;52.80
13174;DHT22;6652;48.802;9.190;2023-06-19T09:07:40;37.50;52.20
13174;DHT22;6652;48.802;9.190;2023-06-19T09:10:15;38.30;51.70
13174;DHT22;6652;48.802;9.190;2023-06-19T09:12:42;39.00;50.00
13174;DHT22;6652;48.802;9.190;2023-06-19T09:15:13;39.40;48.60
13174;DHT22;6652;48.802;9.190;2023-06-19T09:17:41;39.50;48.60
13174;DHT22;6652;48.802;9.190;2023-06-19T09:20:09;39.50;48.20
13174;DHT22;6652;48.802;9.190;2023-06-19T09:22:38;39.60;48.70
13174;DHT22;6652;48.802;9.190;2023-06-19T09:25:06;39.80;47.70
13174;DHT22;6652;48.802;9.190;2023-06-19T09:27:35;39.90;48.10
13174;DHT22;6652;48.802;9.190;2023-06-19T09:30:04;40.10;47.50
13174;DHT22;6652;48.802;9.190;2023-06-19T09:32:31;40.30;46.60
13174;DHT22;6652;48.802;9.190;2023-06-19T09:34:59;39.90;46.50
13174;DHT22;6652;48.802;9.190;2023-06-19T09:37:27;40.10;47.10
13174;DHT22;6652;48.802;9.190;2023-06-19T09:39:55;39.90;47.00
13174;DHT22;6652;48.802;9.190;2023-06-19T09:42:27;39.70;46.50
13174;DHT22;6652;48.802;9.190;2023-06-19T09:44:59;39.40;47.80
13174;DHT22;6652;48.802;9.190;2023-06-19T09:47:30;39.50;47.60
13174;DHT22;6652;48.802;9.190;2023-06-19T09:49:59;39.30;47.70
13174;DHT22;6652;48.802;9.190;2023-06-19T09:52:28;39.00;48.20
13174;DHT22;6652;48.802;9.190;2023-06-19T09:54:55;38.10;48.70
13174;DHT22;6652;48.802;9.190;2023-06-19T09:57:23;37.10;50.10
13174;DHT22;6652;48.802;9.190;2023-06-19T09:59:53;36.70;50.60
13174;DHT22;6652;48.802;9.190;2023-06-19T10:02:25;35.60;52.00
13174;DHT22;6652;48.802;9.190;2023-06-19T10:04:55;34.50;53.10
13174;DHT22;6652;48.802;9.190;2023-06-19T10:07:26;33.90;55.00
13174;DHT22;6652;48.802;9.190;2023-06-19T10:09:59;33.80;55.10
13174;DHT22;6652;48.802;9.190;2023-06-19T10:12:40;35.50;55.70
13174;DHT22;6652;48.802;9.190;2023-06-19T10:15:26;37.30;52.50
13174;DHT22;6652;48.802;9.190;2023-06-19T10:17:58;38.30;51.20
13174;DHT22;6652;48.802;9.190;2023-06-19T10:20:29;38.90;49.50
13174;DHT22;6652;48.802;9.190;2023-06-19T10:23:03;39.30;48.50
13174;DHT22;6652;48.802;9.190;2023-06-19T10:25:32;38.90;48.30
13174;DHT22;6652;48.802;9.190;2023-06-19T10:27:59;37.80;49.30
13174;DHT22;6652;48.802;9.190;2023-06-19T10:30:27;36.20;51.60
13174;DHT22;6652;48.802;9.190;2023-06-19T10:32:55;35.50;53.20
13174;DHT22;6652;48.802;9.190;2023-06-19T10:35:23;35.30;53.80
13174;DHT22;6652;48.802;9.190;2023-06-19T10:37:50;34.70;55.10
13174;DHT22;6652;48.802;9.190;2023-06-19T10:40:19;34.60;55.50
13174;DHT22;6652;48.802;9.190;2023-06-19T10:42:46;34.60;55.50
13174;DHT22;6652;48.802;9.190;2023-06-19T10:45:14;34.30;55.90
13174;DHT22;6652;48.802;9.190;2023-06-19T10:47:42;34.10;57.00
13174;DHT22;6652;48.802;9.190;2023-06-19T10:50:11;34.20;57.30
13174;DHT22;6652;48.802;9.190;2023-06-19T10:52:40;33.80;57.10
13174;DHT22;6652;48.802;9.190;2023-06-19T10:55:08;33.50;57.50
13174;DHT22;6652;48.802;9.190;2023-06-19T10:57:37;33.20;58.80
13174;DHT22;6652;48.802;9.190;2023-06-19T11:00:05;33.10;58.70
13174;DHT22;6652;48.802;9.190;2023-06-19T11:02:36;32.80;59.10
13174;DHT22;6652;48.802;9.190;2023-06-19T11:05:05;32.70;59.60
13174;DHT22;6652;48.802;9.190;2023-06-19T11:07:32;32.70;60.10
13174;DHT22;6652;48.802;9.190;2023-06-19T11:09:59;32.70;59.80
13174;DHT22;6652;48.802;9.190;2023-06-19T11:12:26;32.80;60.60
13174;DHT22;6652;48.802;9.190;2023-06-19T11:14:54;32.80;60.00
13174;DHT22;6652;48.802;9.190;2023-06-19T11:17:22;32.70;59.90
13174;DHT22;6652;48.802;9.190;2023-06-19T11:19:49;32.70;59.70
13174;DHT22;6652;48.802;9.190;2023-06-19T11:22:16;32.70;60.20
13174;DHT22;6652;48.802;9.190;2023-06-19T11:24:44;32.90;59.10
13174;DHT22;6652;48.802;9.190;2023-06-19T11:27:17;32.90;60.40
13174;DHT22;6652;48.802;9.190;2023-06-19T11:29:44;33.30;59.50
13174;DHT22;6652;48.802;9.190;2023-06-19T11:32:14;33.60;59.30
13174;DHT22;6652;48.802;9.190;2023-06-19T11:34:41;33.90;59.30
13174;DHT22;6652;48.802;9.190;2023-06-19T11:37:13;34.10;58.70
13174;DHT22;6652;48.802;9.190;2023-06-19T11:39:41;34.30;57.20
13174;DHT22;6652;48.802;9.190;2023-06-19T11:42:08;34.50;56.90
13174;DHT22;6652;48.802;9.190;2023-06-19T11:44:35;34.30;57.40
13174;DHT22;6652;48.802;9.190;2023-06-19T11:47:01;34.40;57.00
13174;DHT22;6652;48.802;9.190;2023-06-19T11:49:34;34.40;56.60
13174;DHT22;6652;48.802;9.190;2023-06-19T11:52:01;34.20;57.40
13174;DHT22;6652;48.802;9.190;2023-06-19T11:54:28;34.30;57.50
13174;DHT22;6652;48.802;9.190;2023-06-19T11:56:55;34.40;58.00
13174;DHT22;6652;48.802;9.190;2023-06-19T11:59:22;34.50;56.40
13174;DHT22;6652;48.802;9.190;2023-06-19T12:01:49;34.40;56.50
13174;DHT22;6652;48.802;9.190;2023-06-19T12:04:16;34.40;56.40
13174;DHT22;6652;48.802;9.190;2023-06-19T12:06:44;34.20;56.80
13174;DHT22;6652;48.802;9.190;2023-06-19T12:09:11;33.90;57.40
13174;DHT22;6652;48.802;9.190;2023-06-19T12:11:38;33.70;57.50
13174;DHT22;6652;48.802;9.190;2023-06-19T12:14:04;33.70;57.30
13174;DHT22;6652;48.802;9.190;2023-06-19T12:16:31;33.70;57.60
13174;DHT22;6652;48.802;9.190;2023-06-19T12:18:58;33.50;57.80
13174;DHT22;6652;48.802;9.190;2023-06-19T12:21:25;33.40;58.20
13174;DHT22;6652;48.802;9.190;2023-06-19T12:23:53;33.40;58.20
13174;DHT22;6652;48.802;9.190;2023-06-19T12:26:21;33.40;58.00
13174;DHT22;6652;48.802;9.190;2023-06-19T12:28:50;33.50;58.10
13174;DHT22;6652;48.802;9.190;2023-06-19T12:31:17;33.60;57.90
13174;DHT22;6652;48.802;9.190;2023-06-19T12:33:44;33.60;57.30
13174;DHT22;6652;48.802;9.190;2023-06-19T12:36:13;33.30;58.00
13174;DHT22;6652;48.802;9.190;2023-06-19T12:38:40;33.30;58.80
13174;DHT22;6652;48.802;9.190;2023-06-19T12:41:09;33.50;58.90
13174;DHT22;6652;48.802;9.190;2023-06-19T12:43:35;33.70;58.40
13174;DHT22;6652;48.802;9.190;2023-06-19T12:46:02;33.40;58.00
13174;DHT22;6652;48.802;9.190;2023-06-19T12:48:29;33.50;58.80
13174;DHT22;6652;48.802;9.190;2023-06-19T12:50:56;33.30;59.10
13174;DHT22;6652;48.802;9.190;2023-06-19T12:53:23;33.00;58.70
13174;DHT22;6652;48.802;9.190;2023-06-19T12:55:55;32.70;59.20
13174;DHT22;6652;48.802;9.190;2023-06-19T12:58:23;32.70;60.20
13174;DHT22;6652;48.802;9.190;2023-06-19T13:00:50;32.90;59.60
13174;DHT22;6652;48.802;9.190;2023-06-19T13:03:17;32.70;59.20
13174;DHT22;6652;48.802;9.190;2023-06-19T13:05:45;32.50;59.70
13174;DHT22;6652;48.802;9.190;2023-06-19T13:08:12;32.50;60.40
13174;DHT22;6652;48.802;9.190;2023-06-19T13:10:39;32.50;59.90
13174;DHT22;6652;48.802;9.190;2023-06-19T13:13:06;32.20;60.30
13174;DHT22;6652;48.802;9.190;2023-06-19T13:15:34;32.10;60.40
13174;DHT22;6652;48.802;9.190;2023-06-19T13:18:01;31.90;60.60
13174;DHT22;6652;48.802;9.190;2023-06-19T13:20:28;32.10;60.80
13174;DHT22;6652;48.802;9.190;2023-06-19T13:22:54;32.00;60.30
13174;DHT22;6652;48.802;9.190;2023-06-19T13:25:21;31.80;60.80
13174;DHT22;6652;48.802;9.190;2023-06-19T13:27:48;32.00;60.60
13174;DHT22;6652;48.802;9.190;2023-06-19T13:30:15;32.30;59.70
13174;DHT22;6652;48.802;9.190;2023-06-19T13:32:44;32.50;59.70
13174;DHT22;6652;48.802;9.190;2023-06-19T13:35:10;32.70;59.40
13174;DHT22;6652;48.802;9.190;2023-06-19T13:37:37;32.90;58.70
13174;DHT22;6652;48.802;9.190;2023-06-19T13:40:06;32.80;57.90
13174;DHT22;6652;48.802;9.190;2023-06-19T13:42:33;32.70;58.50
13174;DHT22;6652;48.802;9.190;2023-06-19T13:45:01;32.70;58.60
13174;DHT22;6652;48.802;9.190;2023-06-19T13:47:28;32.60;58.60
13174;DHT22;6652;48.802;9.190;2023-06-19T13:49:57;32.50;58.80
13174;DHT22;6652;48.802;9.190;2023-06-19T13:52:24;32.20;59.10
13174;DHT22;6652;48.802;9.190;2023-06-19T13:54:50;31.90;59.20
13174;DHT22;6652;48.802;9.190;2023-06-19T13:57:17;31.80;59.90
13174;DHT22;6652;48.802;9.190;2023-06-19T13:59:44;31.80;59.90
13174;DHT22;6652;48.802;9.190;2023-06-19T14:02:11;31.80;60.20
13174;DHT22;6652;48.802;9.190;2023-06-19T14:04:38;31.90;60.50
13174;DHT22;6652;48.802;9.190;2023-06-19T14:07:07;32.00;60.80
13174;DHT22;6652;48.802;9.190;2023-06-19T14:09:34;32.20;60.20
13174;DHT22;6652;48.802;9.190;2023-06-19T14:12:00;32.20;60.20
13174;DHT22;6652;48.802;9.190;2023-06-19T14:14:27;32.10;60.80
13174;DHT22;6652;48.802;9.190;2023-06-19T14:16:54;31.90;61.60
13174;DHT22;6652;48.802;9.190;2023-06-19T14:19:23;31.90;61.50
13174;DHT22;6652;48.802;9.190;2023-06-19T14:21:50;31.80;61.00
13174;DHT22;6652;48.802;9.190;2023-06-19T14:24:18;31.90;61.00
13174;DHT22;6652;48.802;9.190;2023-06-19T14:26:45;31.70;60.80
13174;DHT22;6652;48.802;9.190;2023-06-19T14:29:12;31.60;61.20
13174;DHT22;6652;48.802;9.190;2023-06-19T14:31:40;31.80;61.00
13174;DHT22;6652;48.802;9.190;2023-06-19T14:34:07;31.90;60.70
13174;DHT22;6652;48.802;9.190;2023-06-19T14:36:33;31.90;60.00
13174;DHT22;6652;48.802;9.190;2023-06-19T14:39:00;32.00;60.10
13174;DHT22;6652;48.802;9.190;2023-06-19T14:41:28;32.10;61.50
13174;DHT22;6652;48.802;9.190;2023-06-19T14:43:55;32.10;60.40
13174;DHT22;6652;48.802;9.190;2023-06-19T14:46:22;31.90;60.20
13174;DHT22;6652;48.802;9.190;2023-06-19T14:48:49;31.80;60.70
13174;DHT22;6652;48.802;9.190;2023-06-19T14:51:16;31.90;61.60
13174;DHT22;6652;48.802;9.190;2023-06-19T14:53:43;31.70;61.20
13174;DHT22;6652;48.802;9.190;2023-06-19T14:56:09;31.40;61.60
13174;DHT22;6652;48.802;9.190;2023-06-19T14:58:38;31.30;62.10
13174;DHT22;6652;48.802;9.190;2023-06-19T15:01:05;31.40;61.60
13174;DHT22;6652;48.802;9.190;2023-06-19T15:03:31;31.40;61.40
13174;DHT22;6652;48.802;9.190;2023-06-19T15:05:59;31.20;62.20
13174;DHT22;6652;48.802;9.190;2023-06-19T15:08:25;31.20;62.00
13174;DHT22;6652;48.802;9.190;2023-06-19T15:10:52;31.30;61.90
13174;DHT22;6652;48.802;9.190;2023-06-19T15:13:19;31.50;62.60
13174;DHT22;6652;48.802;9.190;2023-06-19T15:15:47;31.60;61.70
13174;DHT22;6652;48.802;9.190;2023-06-19T15:18:16;31.70;61.80
13174;DHT22;6652;48.802;9.190;2023-06-19T15:20:43;31.90;61.60
13174;DHT22;6652;48.802;9.190;2023-06-19T15:23:10;32.00;61.50
13174;DHT22;6652;48.802;9.190;2023-06-19T15:25:36;32.30;60.60
13174;DHT22;6652;48.802;9.190;2023-06-19T15:28:03;32.50;60.50
13174;DHT22;6652;48.802;9.190;2023-06-19T15:30:30;32.30;60.30
13174;DHT22;6652;48.802;9.190;2023-06-19T15:32:58;32.30;60.30
13174;DHT22;6652;48.802;9.190;2023-06-19T15:35:25;32.20;60.20
13174;DHT22;6652;48.802;9.190;2023-06-19T15:37:52;32.10;60.20
13174;DHT22;6652;48.802;9.190;2023-06-19T15:40:19;32.00;60.00
13174;DHT22;6652;48.802;9.190;2023-06-19T15:42:45;31.90;60.00
13174;DHT22;6652;48.802;9.190;2023-06-19T15:45:12;31.70;60.40
13174;DHT22;6652;48.802;9.190;2023-06-19T15:47:39;31.60;60.50